Time;durP1;ratioP1;P1;durP2;ratioP2;P2;SDS_P1;SDS_P2;PMS_P1;PMS_P2;Temp;Humidity;BMP_temperature;BMP_pressure;BME280_temperature;BME280_humidity;BME280_pressure;Samples;Min_cycle;Max_cycle;Signal;HPM_P1;HPM_P2
2021/01/23 00:00:54;;;;;;;15.30;10.23;;;;;;;3.29;73.46;93120.81;4968892;28;20098;-38
2021/01/23 00:03:20;;;;;;;14.63;10.40;;;;;;;3.33;73.38;93104.84;4984275;28;20071;-39
2021/01/23 00:05:47;;;;;;;15.68;10.35;;;;;;;3.42;73.26;93122.19;4982952;28;20070;-39
2021/01/23 00:08:13;;;;;;;15.60;10.35;;;;;;;3.67;71.98;93133.31;4983296;28;20515;-39
2021/01/23 00:10:39;;;;;;;14.60;10.60;;;;;;;3.69;71.27;93116.91;4984167;28;20074;-40
2021/01/23 00:13:06;;;;;;;17.80;10.43;;;;;;;3.97;70.59;93144.13;4974389;28;20484;-37
2021/01/23 00:15:33;;;;;;;16.70;9.98;;;;;;;4.07;70.02;93150.00;4971309;28;20051;-39
2021/01/23 00:17:59;;;;;;;15.88;10.27;;;;;;;3.95;70.00;93134.91;4963482;28;20067;-38
2021/01/23 00:20:26;;;;;;;16.60;10.68;;;;;;;4.13;69.96;93160.03;4967693;28;20074;-38
2021/01/23 00:22:52;;;;;;;15.00;10.55;;;;;;;3.97;70.61;93181.56;4984582;28;20398;-38
2021/01/23 00:25:19;;;;;;;14.82;10.75;;;;;;;4.07;70.23;93176.75;4984714;28;20086;-38
2021/01/23 00:27:45;;;;;;;16.77;10.65;;;;;;;4.09;70.27;93187.84;4986431;28;20146;-38
2021/01/23 00:30:12;;;;;;;16.00;10.65;;;;;;;4.07;70.44;93204.28;4981151;28;20063;-48
2021/01/23 00:32:40;;;;;;;15.73;10.80;;;;;;;4.20;70.31;93215.56;4982664;28;20062;-39
2021/01/23 00:35:08;;;;;;;14.35;10.32;;;;;;;4.37;69.51;93235.72;4976515;28;20047;-39
2021/01/23 00:37:34;;;;;;;18.05;11.60;;;;;;;4.30;70.01;93244.41;4970763;28;20055;-39
2021/01/23 00:40:03;;;;;;;16.25;11.02;;;;;;;4.18;70.34;93247.25;4979388;28;20074;-39
2021/01/23 00:42:30;;;;;;;13.65;10.35;;;;;;;4.34;69.71;93250.59;4981150;28;20051;-38
2021/01/23 00:44:57;;;;;;;14.80;10.93;;;;;;;4.30;69.95;93249.75;4980457;28;20055;-39
2021/01/23 00:47:23;;;;;;;15.40;12.23;;;;;;;3.98;71.28;93247.31;4983897;28;20082;-38
2021/01/23 00:49:50;;;;;;;15.98;11.75;;;;;;;4.08;71.45;93253.22;4978896;28;20062;-38
2021/01/23 00:52:16;;;;;;;17.45;11.60;;;;;;;4.11;71.43;93255.19;4971920;28;20059;-38
2021/01/23 00:54:44;;;;;;;17.95;12.45;;;;;;;3.97;72.19;93259.16;4962275;28;20050;-38
2021/01/23 00:57:11;;;;;;;17.05;12.90;;;;;;;3.99;72.30;93266.81;4979685;28;20055;-38
2021/01/23 00:59:37;;;;;;;19.52;12.55;;;;;;;3.73;73.52;93260.22;4981093;28;20081;-38
2021/01/23 01:02:05;;;;;;;18.60;13.80;;;;;;;3.93;72.96;93266.34;4975044;28;20039;-38
2021/01/23 01:04:37;;;;;;;17.65;13.07;;;;;;;3.64;74.80;93285.66;4965483;28;20516;-38
2021/01/23 01:07:04;;;;;;;19.10;14.00;;;;;;;3.64;75.03;93266.94;4972092;28;20058;-38
2021/01/23 01:09:31;;;;;;;18.25;13.57;;;;;;;3.76;75.64;93288.19;4967653;28;20505;-39
2021/01/23 01:11:57;;;;;;;20.83;14.70;;;;;;;3.77;76.29;93288.94;4979284;28;20063;-39
2021/01/23 01:14:23;;;;;;;22.15;15.77;;;;;;;3.78;76.44;93299.31;4979835;28;20149;-39
2021/01/23 01:16:50;;;;;;;22.08;15.07;;;;;;;3.88;76.52;93309.44;4964955;28;20055;-39
2021/01/23 01:19:17;;;;;;;22.00;15.95;;;;;;;3.84;77.20;93319.28;4967641;28;20074;-39
2021/01/23 01:21:43;;;;;;;22.20;15.60;;;;;;;4.06;76.41;93325.78;4967528;28;20062;-39
2021/01/23 01:24:10;;;;;;;22.88;16.00;;;;;;;3.99;76.64;93317.63;4970254;28;20054;-39
2021/01/23 01:26:36;;;;;;;21.83;15.30;;;;;;;3.86;77.51;93338.41;4968191;28;20089;-38
2021/01/23 01:29:03;;;;;;;20.80;13.88;;;;;;;3.91;77.62;93337.38;4967537;28;20081;-38
2021/01/23 01:31:29;;;;;;;21.05;15.27;;;;;;;3.84;78.36;93362.09;4969490;28;20042;-38
2021/01/23 01:33:56;;;;;;;20.35;14.15;;;;;;;3.78;79.24;93352.78;4968985;28;20548;-38
2021/01/23 01:36:22;;;;;;;19.00;13.38;;;;;;;3.80;79.52;93357.78;4964620;28;20086;-39
2021/01/23 01:38:48;;;;;;;23.17;14.98;;;;;;;3.63;80.43;93367.00;4969628;28;20129;-37
2021/01/23 01:41:15;;;;;;;19.85;12.85;;;;;;;3.79;80.15;93361.59;4969795;28;20066;-38
2021/01/23 01:43:44;;;;;;;19.60;13.55;;;;;;;3.75;80.57;93375.66;4966891;28;20059;-37
2021/01/23 01:46:10;;;;;;;16.77;11.82;;;;;;;3.65;81.26;93370.09;4968206;28;20158;-37
2021/01/23 01:48:37;;;;;;;17.70;11.90;;;;;;;3.66;81.46;93387.69;4965458;28;20106;-38
2021/01/23 01:51:04;;;;;;;16.85;11.02;;;;;;;3.64;81.70;93389.91;4968198;28;20090;-38
2021/01/23 01:53:31;;;;;;;16.52;11.63;;;;;;;3.49;81.55;93368.25;4968694;28;20054;-39
2021/01/23 01:55:58;;;;;;;15.05;10.57;;;;;;;3.67;81.07;93387.34;4967605;28;20090;-38
2021/01/23 01:58:25;;;;;;;15.38;10.07;;;;;;;3.73;81.52;93404.63;4965169;28;20051;-38
2021/01/23 02:00:53;;;;;;;14.73;9.70;;;;;;;3.74;81.07;93410.78;4970743;28;20042;-38
2021/01/23 02:03:34;;;;;;;12.50;8.88;;;;;;;3.72;81.07;93429.06;4963077;28;20134;-38
2021/01/23 02:06:03;;;;;;;13.35;8.32;;;;;;;3.63;81.51;93437.28;4961420;28;20047;-38
2021/01/23 02:08:47;;;;;;;12.20;7.72;;;;;;;3.41;82.41;93445.94;4971389;28;20404;-38
2021/01/23 02:11:32;;;;;;;11.40;8.27;;;;;;;3.40;82.59;93455.09;4984381;23;20511;-37
2021/01/23 02:14:24;;;;;;;11.82;7.88;;;;;;;3.25;82.81;93467.34;4949962;28;20053;-37
2021/01/23 02:16:52;;;;;;;11.90;8.00;;;;;;;3.08;83.77;93479.16;4952959;28;20158;-37
2021/01/23 02:19:28;;;;;;;11.00;7.38;;;;;;;3.02;83.66;93484.00;4948957;28;20094;-38
2021/01/23 02:22:13;;;;;;;8.85;5.82;;;;;;;2.93;83.52;93485.28;4953325;28;20107;-37
2021/01/23 02:24:40;;;;;;;6.53;4.32;;;;;;;2.49;82.86;93488.72;4952306;28;20149;-37
2021/01/23 02:27:10;;;;;;;5.97;3.83;;;;;;;2.24;84.20;93503.25;4954138;28;20059;-37
2021/01/23 02:30:18;;;;;;;6.82;4.18;;;;;;;2.08;85.28;93501.31;4954538;28;20078;-37
2021/01/23 02:32:48;;;;;;;5.80;3.17;;;;;;;1.84;85.16;93502.13;4955150;28;20066;-37
2021/01/23 02:35:17;;;;;;;5.97;3.47;;;;;;;1.72;85.49;93518.16;4957366;28;20055;-37
2021/01/23 02:37:45;;;;;;;4.47;2.85;;;;;;;1.74;85.31;93520.50;4955597;28;20114;-36
2021/01/23 02:40:12;;;;;;;5.38;3.00;;;;;;;1.60;85.97;93524.28;4957657;28;20054;-37
2021/01/23 02:42:40;;;;;;;5.55;3.58;;;;;;;1.68;86.50;93529.81;4954330;28;20051;-37
2021/01/23 02:45:10;;;;;;;5.28;3.33;;;;;;;1.84;85.44;93542.13;4955753;28;20050;-36
2021/01/23 02:47:37;;;;;;;5.40;3.10;;;;;;;1.84;84.94;93541.38;4952129;29;20122;-36
2021/01/23 02:50:05;;;;;;;5.13;3.35;;;;;;;1.80;85.24;93543.91;4951161;28;20497;-36
2021/01/23 02:52:57;;;;;;;5.50;3.13;;;;;;;1.65;85.59;93547.25;4956443;28;20057;-37
2021/01/23 02:55:29;;;;;;;4.05;2.33;;;;;;;1.43;85.71;93567.16;4955683;28;20062;-36
2021/01/23 02:57:59;;;;;;;4.05;2.40;;;;;;;1.36;86.20;93577.56;4956820;28;20047;-37
2021/01/23 03:00:26;;;;;;;4.43;2.50;;;;;;;1.47;85.65;93602.66;4960249;28;20066;-37
2021/01/23 03:02:55;;;;;;;4.68;2.60;;;;;;;1.52;85.83;93615.00;4966774;28;20114;-37
2021/01/23 03:05:41;;;;;;;3.72;2.33;;;;;;;1.29;85.80;93603.97;4964467;28;20066;-36
2021/01/23 03:08:07;;;;;;;4.20;2.47;;;;;;;1.20;86.74;93595.28;4945656;28;20087;-37
2021/01/23 03:10:36;;;;;;;3.90;2.53;;;;;;;1.16;86.86;93592.50;4950284;29;20070;-37
2021/01/23 03:13:04;;;;;;;3.60;2.20;;;;;;;1.09;86.79;93601.03;4955830;28;20062;-37
2021/01/23 03:15:30;;;;;;;3.40;2.17;;;;;;;1.08;87.17;93618.13;4954727;28;20051;-36
2021/01/23 03:17:57;;;;;;;3.53;2.30;;;;;;;1.21;86.37;93642.91;4953441;29;20069;-36
2021/01/23 03:20:26;;;;;;;2.88;1.67;;;;;;;1.10;86.53;93645.19;4953548;28;20493;-36
2021/01/23 03:22:56;;;;;;;3.35;2.15;;;;;;;1.00;87.09;93647.50;4954898;28;20149;-36
2021/01/23 03:25:24;;;;;;;3.13;2.03;;;;;;;1.03;87.50;93668.16;4953781;28;20047;-36
2021/01/23 03:27:51;;;;;;;3.05;1.83;;;;;;;1.09;87.20;93686.25;4953202;28;20118;-37
2021/01/23 03:30:18;;;;;;;2.58;1.67;;;;;;;1.03;87.13;93692.88;4953027;29;20055;-36
2021/01/23 03:32:45;;;;;;;3.00;1.95;;;;;;;1.02;87.08;93693.22;4970688;28;20106;-37
2021/01/23 03:35:12;;;;;;;3.40;2.05;;;;;;;0.91;87.69;93698.16;4954566;28;20066;-36
2021/01/23 03:37:40;;;;;;;2.88;1.83;;;;;;;0.79;87.70;93693.56;4954320;28;20051;-35
2021/01/23 03:40:07;;;;;;;2.22;1.40;;;;;;;0.83;88.09;93697.13;4966507;28;20047;-35
2021/01/23 03:42:35;;;;;;;2.70;1.85;;;;;;;0.91;87.63;93690.16;4961938;28;20081;-35
2021/01/23 03:45:03;;;;;;;3.60;1.45;;;;;;;0.87;88.05;93683.94;4971392;28;20047;-36
2021/01/23 03:47:31;;;;;;;5.03;1.42;;;;;;;0.75;87.97;93684.66;4954527;28;20138;-36
2021/01/23 03:49:57;;;;;;;3.08;1.52;;;;;;;0.79;88.26;93682.13;4946511;28;20131;-36
2021/01/23 03:52:23;;;;;;;2.45;1.60;;;;;;;0.62;88.49;93689.16;4942441;29;20122;-36
2021/01/23 03:54:50;;;;;;;2.20;1.50;;;;;;;0.80;88.38;93712.97;4963639;28;20126;-36
2021/01/23 03:57:16;;;;;;;1.40;1.20;;;;;;;0.76;87.94;93720.81;4963422;28;20074;-37
2021/01/23 03:59:43;;;;;;;1.60;1.10;;;;;;;0.69;87.93;93731.22;4951253;29;20129;-36
2021/01/23 04:02:10;;;;;;;2.03;1.35;;;;;;;0.67;88.00;93738.72;4954055;28;20445;-37
2021/01/23 04:04:37;;;;;;;1.50;1.02;;;;;;;0.75;87.59;93735.25;4955389;28;20086;-36
2021/01/23 04:07:03;;;;;;;2.00;1.15;;;;;;;0.77;87.54;93742.88;4944594;28;20130;-37
2021/01/23 04:09:29;;;;;;;1.38;0.90;;;;;;;0.67;87.13;93736.84;4954413;28;20078;-37
2021/01/23 04:11:56;;;;;;;2.45;1.08;;;;;;;0.63;87.39;93740.47;4969200;28;20106;-37
2021/01/23 04:14:22;;;;;;;1.73;1.10;;;;;;;0.72;87.54;93735.13;4941241;28;20056;-37
2021/01/23 04:16:49;;;;;;;1.92;0.98;;;;;;;0.72;87.79;93745.75;4957423;28;20130;-36
2021/01/23 04:19:18;;;;;;;0.95;0.80;;;;;;;0.57;87.54;93723.91;4961694;28;20048;-36
2021/01/23 04:21:44;;;;;;;1.17;0.65;;;;;;;0.72;87.15;93756.41;4953699;29;20085;-37
2021/01/23 04:24:10;;;;;;;1.02;0.90;;;;;;;0.57;87.71;93742.53;4959745;28;20063;-37
2021/01/23 04:26:41;;;;;;;2.00;1.40;;;;;;;0.60;88.41;93752.53;4953513;28;20047;-36
2021/01/23 04:29:07;;;;;;;1.35;0.98;;;;;;;0.67;87.86;93754.69;4952698;28;20134;-37
2021/01/23 04:31:35;;;;;;;1.20;1.08;;;;;;;0.67;87.78;93760.78;4953518;28;20065;-38
2021/01/23 04:34:03;;;;;;;1.30;1.10;;;;;;;0.72;87.53;93759.84;4954030;28;20408;-37
2021/01/23 04:36:29;;;;;;;1.80;0.95;;;;;;;0.69;87.90;93777.22;4953736;28;20085;-37
2021/01/23 04:38:55;;;;;;;1.30;0.93;;;;;;;0.60;87.61;93776.50;4951801;28;20131;-38
2021/01/23 04:41:22;;;;;;;1.00;0.90;;;;;;;0.53;87.88;93789.53;4968341;28;20071;-37
2021/01/23 04:43:49;;;;;;;1.17;0.80;;;;;;;0.60;87.88;93803.09;4954805;28;20422;-37
2021/01/23 04:46:17;;;;;;;0.98;0.82;;;;;;;0.63;87.50;93817.66;4950403;28;20238;-37
2021/01/23 04:48:44;;;;;;;0.70;0.70;;;;;;;0.69;87.59;93817.16;4934321;29;20056;-37
2021/01/23 04:51:11;;;;;;;1.10;1.00;;;;;;;0.62;88.01;93832.06;4950977;28;20059;-37
2021/01/23 04:53:40;;;;;;;1.38;0.90;;;;;;;0.63;87.77;93836.28;4953556;28;20066;-37
2021/01/23 04:56:06;;;;;;;0.88;0.77;;;;;;;0.45;88.03;93849.63;4953372;28;20083;-37
2021/01/23 04:58:36;;;;;;;0.70;0.70;;;;;;;0.39;87.99;93839.50;4952319;28;20051;-37
2021/01/23 05:01:03;;;;;;;0.80;0.70;;;;;;;0.41;88.32;93834.66;4934829;29;20466;-37
2021/01/23 05:03:29;;;;;;;0.90;0.80;;;;;;;0.44;88.44;93836.66;4950044;28;20118;-37
2021/01/23 05:06:06;;;;;;;1.02;0.70;;;;;;;0.43;87.77;93840.44;4954041;28;20082;-37
2021/01/23 05:08:37;;;;;;;0.70;0.70;;;;;;;0.43;88.45;93825.25;4943152;28;20051;-37
2021/01/23 05:11:04;;;;;;;0.70;0.70;;;;;;;0.37;88.31;93831.06;4953143;28;20053;-37
2021/01/23 05:13:31;;;;;;;1.08;0.90;;;;;;;0.43;88.59;93838.56;4968153;28;20048;-36
2021/01/23 05:15:57;;;;;;;0.50;0.50;;;;;;;0.38;88.19;93857.34;4972887;28;20083;-37
2021/01/23 05:18:24;;;;;;;0.80;0.80;;;;;;;0.40;88.82;93865.03;4943849;28;20436;-37
2021/01/23 05:20:52;;;;;;;0.90;0.70;;;;;;;0.42;88.63;93849.50;4936914;29;20366;-37
2021/01/23 05:23:23;;;;;;;1.15;0.90;;;;;;;0.47;88.80;93850.13;4947480;29;20055;-38
2021/01/23 05:25:55;;;;;;;1.35;0.95;;;;;;;0.48;88.60;93858.88;4953098;28;20043;-37
2021/01/23 05:28:29;;;;;;;1.00;0.88;;;;;;;0.52;88.93;93853.69;4951138;28;20543;-37
2021/01/23 05:30:56;;;;;;;1.25;0.85;;;;;;;0.47;88.55;93865.31;4954449;28;20059;-36
2021/01/23 05:33:27;;;;;;;1.70;1.30;;;;;;;0.50;88.87;93859.34;4953477;28;20070;-36
2021/01/23 05:36:03;;;;;;;1.67;1.20;;;;;;;0.44;89.00;93876.56;4953876;28;20489;-37
2021/01/23 05:38:31;;;;;;;1.30;0.98;;;;;;;0.43;88.92;93864.38;4952660;28;20055;-37
2021/01/23 05:41:03;;;;;;;1.75;1.20;;;;;;;0.46;89.22;93891.13;4953724;28;20134;-37
2021/01/23 05:43:36;;;;;;;3.10;1.33;;;;;;;0.53;88.65;93881.88;4952730;28;20055;-37
2021/01/23 05:46:25;;;;;;;1.75;1.02;;;;;;;0.49;88.42;93895.03;4935111;28;20083;-37
2021/01/23 05:48:53;;;;;;;1.63;1.20;;;;;;;0.51;88.24;93892.81;4952891;28;20055;-37
2021/01/23 05:51:20;;;;;;;1.80;1.17;;;;;;;0.54;88.00;93894.84;4942249;28;20066;-37
2021/01/23 05:53:47;;;;;;;1.00;0.77;;;;;;;0.45;88.24;93902.84;4957845;28;20083;-37
2021/01/23 05:56:14;;;;;;;1.90;1.45;;;;;;;0.41;89.00;93909.13;4971559;28;20141;-36
2021/01/23 05:58:43;;;;;;;2.25;1.40;;;;;;;0.54;88.54;93926.00;4939308;29;20079;-37
2021/01/23 06:01:12;;;;;;;1.75;1.25;;;;;;;0.42;88.39;93935.44;4958226;28;20051;-37
2021/01/23 06:03:50;;;;;;;2.17;1.15;;;;;;;0.51;88.08;93932.72;4956084;28;20059;-37
2021/01/23 06:06:17;;;;;;;2.05;1.40;;;;;;;0.48;88.31;93952.00;4955702;28;20047;-37
2021/01/23 06:08:51;;;;;;;2.10;1.35;;;;;;;0.58;88.21;93969.50;4954491;28;20048;-37
2021/01/23 06:11:17;;;;;;;1.75;1.17;;;;;;;0.60;88.09;93968.09;4956662;28;20078;-38
2021/01/23 06:13:48;;;;;;;2.28;1.45;;;;;;;0.66;87.82;93972.16;4955831;28;20106;-37
2021/01/23 06:16:33;;;;;;;1.90;1.38;;;;;;;0.54;87.79;93966.69;4955416;28;20109;-38
2021/01/23 06:19:38;;;;;;;2.28;1.50;;;;;;;0.55;87.96;93956.81;4951782;29;20054;-37
2021/01/23 06:22:04;;;;;;;1.83;1.45;;;;;;;0.58;87.73;93975.59;4944869;28;20126;-37
2021/01/23 06:24:30;;;;;;;2.85;1.83;;;;;;;0.67;87.55;93973.69;4956048;28;20132;-37
2021/01/23 06:27:01;;;;;;;2.85;1.75;;;;;;;0.63;88.08;93982.66;4955852;28;20130;-37
2021/01/23 06:29:42;;;;;;;2.25;1.52;;;;;;;0.63;87.89;93987.97;4937180;29;20060;-37
2021/01/23 06:32:14;;;;;;;2.30;1.60;;;;;;;0.59;88.26;93995.03;4944891;28;20051;-38
2021/01/23 06:34:45;;;;;;;3.58;1.85;;;;;;;0.69;87.65;93998.13;4954070;28;20055;-38
2021/01/23 06:37:44;;;;;;;3.00;1.90;;;;;;;0.73;87.87;94008.16;4954299;28;20083;-37
2021/01/23 06:40:22;;;;;;;2.67;1.77;;;;;;;0.84;87.30;94002.16;4953128;28;20137;-37
2021/01/23 06:42:51;;;;;;;2.47;1.58;;;;;;;0.69;87.38;94008.78;4956180;28;20057;-37
2021/01/23 06:45:20;;;;;;;2.85;1.65;;;;;;;0.64;87.63;94011.59;4948570;28;20095;-37
2021/01/23 06:47:54;;;;;;;3.08;2.10;;;;;;;0.67;87.46;94007.53;4952282;28;20235;-37
2021/01/23 06:50:28;;;;;;;3.55;2.10;;;;;;;0.77;87.65;94015.16;4948559;28;20055;-37
2021/01/23 06:52:55;;;;;;;3.03;1.98;;;;;;;0.81;86.55;94020.63;4957418;28;20067;-37
2021/01/23 06:55:44;;;;;;;3.25;2.20;;;;;;;0.87;86.72;94030.03;4960164;28;20051;-37
2021/01/23 06:58:15;;;;;;;2.53;1.65;;;;;;;0.78;86.72;94026.59;4959381;28;20572;-38
2021/01/23 07:00:41;;;;;;;2.80;1.85;;;;;;;0.76;86.60;94023.50;4944550;28;20122;-37
2021/01/23 07:03:14;;;;;;;2.97;2.08;;;;;;;0.74;86.93;94026.44;4957091;28;20082;-37
2021/01/23 07:05:48;;;;;;;;;;;;;;;0.96;85.52;94033.44;4957058;28;20450;-36
2021/01/23 07:08:28;;;;;;;3.92;2.00;;;;;;;0.78;86.29;94038.06;4955631;28;19922;-36
2021/01/23 07:11:07;;;;;;;2.30;1.55;;;;;;;0.73;85.60;94066.72;4956183;28;20079;-37
2021/01/23 07:13:35;;;;;;;2.65;1.63;;;;;;;0.81;86.23;94050.69;4954726;28;20082;-38
2021/01/23 07:16:03;;;;;;;4.03;2.28;;;;;;;0.93;85.94;94050.84;4955662;28;20059;-37
2021/01/23 07:18:30;;;;;;;3.00;2.00;;;;;;;0.93;85.52;94064.16;4944237;28;20071;-37
2021/01/23 07:20:57;;;;;;;2.83;1.83;;;;;;;1.21;84.67;94071.78;4960986;28;20631;-38
2021/01/23 07:23:23;;;;;;;2.20;1.40;;;;;;;0.89;85.22;94062.44;4965976;28;20051;-37
2021/01/23 07:25:50;;;;;;;2.45;1.60;;;;;;;0.85;85.52;94070.28;4956688;28;20040;-37
2021/01/23 07:28:18;;;;;;;3.30;1.98;;;;;;;0.76;85.54;94072.19;4950036;28;20056;-37
2021/01/23 07:30:46;;;;;;;3.53;1.75;;;;;;;0.68;85.93;94071.09;4958854;28;20051;-37
2021/01/23 07:33:27;;;;;;;2.28;1.83;;;;;;;0.89;85.67;94083.75;4966587;28;20055;-37
2021/01/23 07:35:54;;;;;;;2.50;1.70;;;;;;;0.98;85.21;94089.84;4961788;28;20066;-37
2021/01/23 07:38:20;;;;;;;2.35;1.63;;;;;;;0.92;85.73;94091.88;4952398;28;20122;-38
2021/01/23 07:40:47;;;;;;;4.65;2.30;;;;;;;1.06;85.60;94093.59;4954776;28;20047;-38
2021/01/23 07:43:13;;;;;;;2.40;1.92;;;;;;;0.88;84.84;94101.59;4954627;28;20051;-38
2021/01/23 07:45:41;;;;;;;2.50;1.85;;;;;;;0.89;86.13;94097.06;4952129;28;20122;-38
2021/01/23 07:48:08;;;;;;;3.22;1.88;;;;;;;0.86;86.18;94095.81;4954335;28;20098;-37
2021/01/23 07:50:40;;;;;;;2.92;2.00;;;;;;;0.92;85.90;94099.88;4946823;28;20051;-37
2021/01/23 07:53:23;;;;;;;2.70;1.83;;;;;;;0.82;85.58;94099.44;4954162;28;20054;-36
2021/01/23 07:55:51;;;;;;;3.58;1.67;;;;;;;0.69;86.47;94093.16;4955105;28;20098;-37
2021/01/23 07:58:18;;;;;;;3.65;2.28;;;;;;;0.83;86.70;94112.41;4966791;28;20055;-38
2021/01/23 08:00:46;;;;;;;3.40;2.15;;;;;;;0.81;86.24;94103.16;4966824;28;20043;-37
2021/01/23 08:03:13;;;;;;;3.60;2.40;;;;;;;0.94;85.81;94104.88;4961941;28;20070;-39
2021/01/23 08:05:44;;;;;;;5.85;2.55;;;;;;;1.03;86.00;94113.63;4970054;28;20055;-38
2021/01/23 08:08:12;;;;;;;3.38;2.35;;;;;;;1.09;84.83;94095.63;4940732;29;20139;-38
2021/01/23 08:10:39;;;;;;;5.13;2.67;;;;;;;1.26;85.80;94114.22;4937582;28;20051;-38
2021/01/23 08:13:07;;;;;;;3.70;2.63;;;;;;;1.08;84.93;94108.16;4955309;28;20508;-37
2021/01/23 08:15:36;;;;;;;4.07;2.80;;;;;;;0.98;86.69;94111.16;4952959;28;20105;-37
2021/01/23 08:18:23;;;;;;;4.35;2.60;;;;;;;1.16;85.84;94107.34;4954387;28;20055;-37
2021/01/23 08:20:49;;;;;;;4.82;2.80;;;;;;;0.99;85.94;94111.94;4953254;28;20048;-38
2021/01/23 08:23:18;;;;;;;4.30;2.90;;;;;;;0.89;86.69;94108.50;4953008;28;20142;-38
2021/01/23 08:25:44;;;;;;;3.78;2.65;;;;;;;1.03;86.00;94110.97;4954769;28;20478;-39
2021/01/23 08:28:12;;;;;;;4.95;3.13;;;;;;;0.99;85.85;94115.38;4952256;28;20105;-38
2021/01/23 08:30:40;;;;;;;4.80;3.00;;;;;;;1.02;85.72;94120.06;4954612;28;20113;-38
2021/01/23 08:33:11;;;;;;;4.30;2.70;;;;;;;0.84;86.15;94118.50;4954580;28;20059;-37
2021/01/23 08:35:42;;;;;;;5.00;3.22;;;;;;;0.99;85.86;94122.56;4953223;28;20059;-38
2021/01/23 08:38:12;;;;;;;4.53;3.22;;;;;;;1.02;85.36;94121.94;4954649;28;20058;-37
2021/01/23 08:40:40;;;;;;;5.40;3.28;;;;;;;1.26;85.05;94108.09;4953478;29;20118;-38
2021/01/23 08:43:06;;;;;;;6.43;3.72;;;;;;;1.31;84.27;94114.06;4954093;28;20043;-37
2021/01/23 08:45:33;;;;;;;5.63;3.53;;;;;;;1.09;85.04;94130.22;4940318;28;20123;-37
2021/01/23 08:47:59;;;;;;;4.20;3.08;;;;;;;1.14;84.72;94108.78;4940156;28;20102;-38
2021/01/23 08:50:26;;;;;;;5.22;3.22;;;;;;;1.17;84.37;94108.13;4940783;28;20413;-38
2021/01/23 08:52:53;;;;;;;5.75;3.13;;;;;;;1.28;84.40;94104.03;4935173;29;20458;-37
2021/01/23 08:55:19;;;;;;;5.25;3.03;;;;;;;1.33;83.76;94108.38;4936299;29;20402;-38
2021/01/23 08:57:46;;;;;;;4.03;2.58;;;;;;;1.30;84.06;94107.16;4935183;28;20415;-38
2021/01/23 09:00:14;;;;;;;4.03;2.80;;;;;;;1.39;82.96;94107.91;4939314;29;20367;-38
2021/01/23 09:02:40;;;;;;;4.63;3.40;;;;;;;1.46;83.43;94102.06;4953955;28;20097;-38
2021/01/23 09:05:10;;;;;;;6.38;2.80;;;;;;;1.75;81.86;94105.88;4954530;28;20054;-39
2021/01/23 09:07:40;;;;;;;4.03;2.67;;;;;;;1.42;82.89;94103.81;4953823;28;20062;-38
2021/01/23 09:10:12;;;;;;;4.45;2.85;;;;;;;1.53;82.65;94102.38;4936360;28;20055;-38
2021/01/23 09:12:40;;;;;;;3.30;2.35;;;;;;;1.38;82.09;94087.69;4949979;28;20138;-39
2021/01/23 09:15:08;;;;;;;4.07;2.78;;;;;;;1.53;83.05;94099.72;4950278;28;20056;-39
2021/01/23 09:17:35;;;;;;;4.85;3.00;;;;;;;1.60;82.93;94089.34;4935369;29;20139;-38
2021/01/23 09:20:03;;;;;;;4.45;2.50;;;;;;;1.90;80.75;94086.69;4937964;28;20048;-38
2021/01/23 09:22:30;;;;;;;4.72;2.97;;;;;;;2.14;80.45;94085.28;4953617;28;20424;-38
2021/01/23 09:24:56;;;;;;;4.20;2.75;;;;;;;2.12;79.70;94085.63;4953589;28;20059;-40
2021/01/23 09:27:23;;;;;;;4.13;2.67;;;;;;;2.21;80.08;94089.03;4954173;28;20505;-39
2021/01/23 09:29:49;;;;;;;4.32;2.63;;;;;;;2.15;79.25;94089.53;4939240;28;20051;-39
2021/01/23 09:32:17;;;;;;;4.07;2.47;;;;;;;2.06;79.75;94093.03;4934622;28;20513;-37
2021/01/23 09:34:44;;;;;;;4.55;2.97;;;;;;;2.28;79.65;94097.28;4935598;29;20107;-39
2021/01/23 09:37:11;;;;;;;3.78;2.47;;;;;;;2.19;78.12;94098.44;4939571;28;20056;-38
2021/01/23 09:39:38;;;;;;;3.97;2.20;;;;;;;2.61;77.60;94111.81;4953313;28;20177;-38
2021/01/23 09:42:07;;;;;;;6.32;2.97;;;;;;;2.52;78.45;94120.66;4959263;28;20062;-38
2021/01/23 09:44:33;;;;;;;4.10;2.50;;;;;;;2.70;77.07;94102.63;4973794;28;20054;-38
2021/01/23 09:47:00;;;;;;;4.28;2.53;;;;;;;2.64;77.17;94093.25;4973203;28;20421;-38
2021/01/23 09:49:27;;;;;;;4.35;2.75;;;;;;;2.75;77.44;94109.66;4956155;29;20083;-38
2021/01/23 09:51:53;;;;;;;4.28;2.60;;;;;;;2.58;77.49;94107.91;4958178;28;20110;-39
2021/01/23 09:54:20;;;;;;;4.22;2.60;;;;;;;2.53;77.61;94106.19;4972887;28;20551;-37
2021/01/23 09:57:03;;;;;;;4.43;2.72;;;;;;;2.64;77.81;94100.50;4958567;28;20039;-38
2021/01/23 09:59:30;;;;;;;5.40;2.92;;;;;;;2.69;77.89;94092.25;4957103;28;20118;-37
2021/01/23 10:02:01;;;;;;;4.65;2.70;;;;;;;2.78;76.52;94101.00;4956878;28;20055;-38
2021/01/23 10:04:29;;;;;;;5.55;2.78;;;;;;;2.69;76.56;94094.94;4958733;28;20059;-38
2021/01/23 10:06:58;;;;;;;5.07;2.90;;;;;;;2.88;76.57;94097.13;4948891;28;20082;-39
2021/01/23 10:09:26;;;;;;;6.65;3.60;;;;;;;3.15;75.86;94103.78;4939458;28;20056;-37
2021/01/23 10:11:52;;;;;;;5.55;3.20;;;;;;;2.72;75.48;94092.38;4939281;29;20052;-38
2021/01/23 10:14:19;;;;;;;5.80;3.15;;;;;;;2.47;77.69;94093.38;4961953;28;20043;-38
2021/01/23 10:16:46;;;;;;;5.90;3.20;;;;;;;2.84;76.23;94097.00;4952446;28;20063;-38
2021/01/23 10:19:12;;;;;;;4.38;3.00;;;;;;;2.51;76.06;94091.63;4970386;28;20062;-37
2021/01/23 10:21:41;;;;;;;5.40;2.85;;;;;;;2.43;76.96;94079.91;4974390;28;20123;-38
2021/01/23 10:24:08;;;;;;;5.65;3.00;;;;;;;2.65;76.73;94078.78;4956463;28;20070;-38
2021/01/23 10:26:34;;;;;;;7.65;3.78;;;;;;;2.69;75.59;94078.91;4957089;28;20126;-39
2021/01/23 10:29:01;;;;;;;7.35;4.47;;;;;;;2.66;76.44;94079.56;4967471;28;20058;-38
2021/01/23 10:31:29;;;;;;;5.22;2.88;;;;;;;2.61;76.17;94085.13;4938412;29;20047;-38
2021/01/23 10:33:56;;;;;;;9.00;3.65;;;;;;;2.77;75.47;94078.06;4956024;28;20497;-38
2021/01/23 10:36:23;;;;;;;9.05;4.85;;;;;;;3.20;74.92;94082.22;4955359;28;20078;-38
2021/01/23 10:38:50;;;;;;;5.07;2.85;;;;;;;3.00;73.53;94076.59;4954576;28;20059;-38
2021/01/23 10:41:16;;;;;;;8.25;4.10;;;;;;;2.94;74.54;94074.47;4960500;28;20421;-37
2021/01/23 10:43:43;;;;;;;6.70;3.90;;;;;;;2.95;73.78;94071.44;4958774;28;20121;-38
2021/01/23 10:46:09;;;;;;;5.50;3.58;;;;;;;2.99;74.18;94074.22;4958176;28;20114;-38
2021/01/23 10:48:36;;;;;;;7.47;3.65;;;;;;;3.21;74.06;94062.38;4948642;28;20062;-38
2021/01/23 10:51:04;;;;;;;5.13;3.45;;;;;;;3.34;73.85;94069.31;4955293;28;20047;-38
2021/01/23 10:53:31;;;;;;;6.03;3.80;;;;;;;3.30;73.03;94062.31;4957703;28;20055;-38
2021/01/23 10:56:05;;;;;;;6.35;3.28;;;;;;;3.23;73.45;94054.84;4957662;28;20060;-39
2021/01/23 10:58:35;;;;;;;5.18;3.42;;;;;;;3.50;73.67;94062.22;4959882;28;20481;-39
2021/01/23 11:01:01;;;;;;;8.25;3.70;;;;;;;3.84;72.21;94054.13;4955744;28;20073;-38
2021/01/23 11:03:29;;;;;;;7.28;4.75;;;;;;;3.84;71.29;94052.22;4959498;28;20043;-38
2021/01/23 11:05:56;;;;;;;8.18;3.85;;;;;;;4.26;70.40;94056.50;4955770;29;20362;-38
2021/01/23 11:08:23;;;;;;;6.15;3.65;;;;;;;4.28;69.90;94041.66;4957855;28;20069;-38
2021/01/23 11:10:53;;;;;;;8.23;3.97;;;;;;;4.05;70.03;94044.03;4966759;28;20047;-38
2021/01/23 11:13:20;;;;;;;6.35;3.90;;;;;;;3.96;70.40;94038.03;4964622;28;20508;-38
2021/01/23 11:15:49;;;;;;;6.72;4.30;;;;;;;4.19;70.14;94030.31;4979907;28;20081;-38
2021/01/23 11:18:16;;;;;;;5.90;3.72;;;;;;;4.07;70.50;94025.00;4955355;28;20167;-38
2021/01/23 11:20:43;;;;;;;10.15;4.20;;;;;;;3.94;70.24;94014.31;4944325;28;20055;-37
2021/01/23 11:23:09;;;;;;;5.93;3.80;;;;;;;4.11;69.58;94020.50;4955764;28;20446;-38
2021/01/23 11:25:36;;;;;;;4.60;3.20;;;;;;;4.05;69.30;94027.22;4955400;28;20085;-38
2021/01/23 11:28:03;;;;;;;5.13;3.25;;;;;;;4.31;69.06;94026.81;4955026;28;20074;-38
2021/01/23 11:30:29;;;;;;;4.75;3.40;;;;;;;4.49;68.05;94013.97;4956439;28;20174;-37
2021/01/23 11:32:55;;;;;;;4.97;3.60;;;;;;;4.20;68.95;94018.50;4959182;28;20113;-37
2021/01/23 11:35:25;;;;;;;6.45;4.00;;;;;;;4.01;68.74;94024.44;4961803;28;20417;-37
2021/01/23 11:37:51;;;;;;;7.72;5.18;;;;;;;4.28;68.98;94014.88;4963449;28;20086;-38
2021/01/23 11:40:18;;;;;;;6.95;3.65;;;;;;;4.28;67.38;94016.78;4963350;28;20200;-37
2021/01/23 11:42:44;;;;;;;5.30;3.60;;;;;;;4.18;68.70;94007.34;4954159;28;20140;-38
2021/01/23 11:45:11;;;;;;;6.43;4.20;;;;;;;3.90;68.90;93985.88;4949083;28;20452;-37
2021/01/23 11:47:40;;;;;;;4.45;3.00;;;;;;;3.92;69.08;94005.03;4959019;28;20646;-37